Time;durP1;ratioP1;P1;durP2;ratioP2;P2;SDS_P1;SDS_P2;PMS_P1;PMS_P2;Temp;Humidity;BMP_temperature;BMP_pressure;BME280_temperature;BME280_humidity;BME280_pressure;Samples;Min_cycle;Max_cycle;Signal;HPM_P1;HPM_P2
2021/11/14 00:01:15;;;;;;;5.00;2.38;;;20.10;47.50;;;;;;4935789;29;20070;-56
2021/11/14 00:03:41;;;;;;;5.22;2.50;;;20.10;47.50;;;;;;4935348;29;20073;-53
2021/11/14 00:06:08;;;;;;;4.47;2.50;;;20.10;47.50;;;;;;4935234;29;20069;-54
2021/11/14 00:08:34;;;;;;;6.15;2.45;;;20.10;47.40;;;;;;4935382;29;20032;-52
2021/11/14 00:11:09;;;;;;;6.55;2.58;;;20.00;47.40;;;;;;4935249;29;20032;-55
2021/11/14 00:13:36;;;;;;;5.55;2.55;;;20.10;47.50;;;;;;4935367;29;20513;-54
2021/11/14 00:16:02;;;;;;;6.40;2.65;;;20.10;47.40;;;;;;4935697;29;20028;-53
2021/11/14 00:18:27;;;;;;;6.38;2.53;;;20.10;47.40;;;;;;4935362;29;20405;-52
2021/11/14 00:20:53;;;;;;;6.45;2.50;;;20.10;47.40;;;;;;4935618;29;20504;-55
2021/11/14 00:23:19;;;;;;;4.78;2.50;;;20.10;47.40;;;;;;4935161;29;20039;-52
2021/11/14 00:25:45;;;;;;;5.60;2.33;;;20.00;47.40;;;;;;4935271;29;20027;-55
2021/11/14 00:28:11;;;;;;;5.70;2.80;;;20.10;47.40;;;;;;4935485;29;20039;-52
2021/11/14 00:30:37;;;;;;;4.95;2.28;;;20.10;47.40;;;;;;4935517;29;20028;-54
2021/11/14 00:33:03;;;;;;;5.25;2.40;;;20.10;47.40;;;;;;4935193;29;20019;-54
2021/11/14 00:35:29;;;;;;;6.03;2.40;;;20.10;47.40;;;;;;4935214;29;20111;-52
2021/11/14 00:37:55;;;;;;;5.03;2.58;;;20.10;47.40;;;;;;4935337;29;20032;-56
2021/11/14 00:40:27;;;;;;;5.25;2.50;;;20.10;47.40;;;;;;4935138;29;20433;-55
2021/11/14 00:42:54;;;;;;;4.88;2.45;;;20.10;47.40;;;;;;4935338;29;20032;-52
2021/11/14 00:45:21;;;;;;;5.25;2.53;;;20.10;47.40;;;;;;4935131;29;20038;-54
2021/11/14 00:47:47;;;;;;;5.07;2.67;;;20.00;47.40;;;;;;4935100;29;20119;-54
2021/11/14 00:50:13;;;;;;;5.00;2.40;;;20.00;47.40;;;;;;4935043;29;20156;-53
2021/11/14 00:52:41;;;;;;;3.45;1.85;;;20.00;47.40;;;;;;4934908;29;20099;-55
2021/11/14 00:55:08;;;;;;;5.95;2.78;;;20.00;47.40;;;;;;4937341;29;20027;-55
2021/11/14 00:57:34;;;;;;;5.30;2.40;;;20.00;47.40;;;;;;4938650;29;20036;-54
2021/11/14 00:59:59;;;;;;;4.63;2.17;;;20.10;47.40;;;;;;4938263;29;20030;-55
2021/11/14 01:02:25;;;;;;;5.80;2.20;;;20.00;47.40;;;;;;4938297;29;20047;-52
2021/11/14 01:04:51;;;;;;;6.35;2.63;;;20.00;47.40;;;;;;4936993;29;20449;-54
2021/11/14 01:07:16;;;;;;;4.40;2.20;;;20.00;47.40;;;;;;4938237;29;20032;-50
2021/11/14 01:09:42;;;;;;;5.00;2.47;;;20.00;47.40;;;;;;4938299;29;20059;-55
2021/11/14 01:12:08;;;;;;;5.43;2.33;;;20.00;47.40;;;;;;4938298;29;20019;-56
2021/11/14 01:14:35;;;;;;;4.35;2.10;;;20.00;47.40;;;;;;4937263;29;20391;-51
2021/11/14 01:17:01;;;;;;;6.68;2.78;;;20.00;47.40;;;;;;4938156;29;20082;-56
2021/11/14 01:19:27;;;;;;;5.10;2.40;;;20.00;47.40;;;;;;4938066;29;20119;-55
2021/11/14 01:21:52;;;;;;;5.10;2.45;;;20.00;47.40;;;;;;4938453;29;20031;-55
2021/11/14 01:24:18;;;;;;;5.05;2.60;;;20.00;47.40;;;;;;4937918;29;20099;-54
2021/11/14 01:26:44;;;;;;;4.85;2.33;;;20.00;47.40;;;;;;4938230;29;20162;-51
2021/11/14 01:29:09;;;;;;;5.78;2.20;;;20.00;47.40;;;;;;4937917;29;20055;-55
2021/11/14 01:31:35;;;;;;;5.30;2.50;;;20.10;47.30;;;;;;4938076;29;20042;-57
2021/11/14 01:34:01;;;;;;;4.10;2.15;;;20.00;47.40;;;;;;4937828;29;20023;-54
2021/11/14 01:36:32;;;;;;;4.30;2.10;;;20.00;47.40;;;;;;4938037;29;20031;-56
2021/11/14 01:38:58;;;;;;;5.07;2.10;;;20.00;47.30;;;;;;4938068;29;20369;-56
2021/11/14 01:41:23;;;;;;;5.18;2.53;;;20.00;47.40;;;;;;4937668;29;20024;-54
2021/11/14 01:43:52;;;;;;;5.97;2.55;;;20.00;47.30;;;;;;4937845;29;20483;-53
2021/11/14 01:46:18;;;;;;;5.40;2.47;;;20.00;47.40;;;;;;4937652;29;20115;-54
2021/11/14 01:48:44;;;;;;;4.82;2.20;;;20.00;47.30;;;;;;4937758;29;20031;-55
2021/11/14 01:51:11;;;;;;;5.82;2.63;;;20.00;47.40;;;;;;4937798;29;20030;-56
2021/11/14 01:53:38;;;;;;;4.05;2.17;;;20.00;47.30;;;;;;4937688;29;20042;-56
2021/11/14 01:56:05;;;;;;;7.00;2.50;;;20.00;47.30;;;;;;4937405;29;20499;-54
2021/11/14 01:58:31;;;;;;;5.35;2.60;;;20.00;47.30;;;;;;4937282;29;20035;-55
2021/11/14 02:01:05;;;;;;;6.13;2.28;;;20.00;47.30;;;;;;4937598;29;20032;-55
2021/11/14 02:03:32;;;;;;;5.47;2.25;;;20.00;47.30;;;;;;4937167;29;20443;-53
2021/11/14 02:05:59;;;;;;;5.60;2.40;;;20.00;47.30;;;;;;4937071;29;20039;-56
2021/11/14 02:08:25;;;;;;;5.15;1.95;;;20.00;47.30;;;;;;4937052;29;20386;-56
2021/11/14 02:10:51;;;;;;;4.13;2.35;;;20.00;47.30;;;;;;4937437;29;20106;-56
2021/11/14 02:13:17;;;;;;;4.68;2.45;;;20.00;47.30;;;;;;4937086;29;20127;-56
2021/11/14 02:15:43;;;;;;;5.90;2.28;;;20.00;47.30;;;;;;4937326;29;20103;-53
2021/11/14 02:18:11;;;;;;;4.72;2.35;;;20.00;47.30;;;;;;4936973;29;20118;-52
2021/11/14 02:20:37;;;;;;;5.07;2.58;;;20.00;47.30;;;;;;4937270;29;20050;-52
2021/11/14 02:23:06;;;;;;;4.10;2.15;;;20.00;47.30;;;;;;4937010;29;20398;-53
2021/11/14 02:25:32;;;;;;;3.92;2.17;;;20.00;47.30;;;;;;4936974;29;20440;-52
2021/11/14 02:27:58;;;;;;;4.93;2.35;;;20.00;47.30;;;;;;4936824;29;20035;-55
2021/11/14 02:30:24;;;;;;;5.03;2.20;;;20.00;47.30;;;;;;4936914;29;20356;-55
2021/11/14 02:32:52;;;;;;;5.28;2.47;;;20.00;47.20;;;;;;4937002;29;20027;-56
2021/11/14 02:35:18;;;;;;;4.45;2.08;;;20.00;47.30;;;;;;4936888;29;20032;-55
2021/11/14 02:37:44;;;;;;;5.88;2.13;;;20.00;47.30;;;;;;4936808;29;20115;-54
2021/11/14 02:40:11;;;;;;;4.80;2.25;;;20.00;47.20;;;;;;4936750;29;20123;-56
2021/11/14 02:42:37;;;;;;;4.50;2.13;;;20.00;47.20;;;;;;4936385;29;20082;-57
2021/11/14 02:45:05;;;;;;;4.05;2.13;;;20.00;47.20;;;;;;4936541;29;20027;-55
2021/11/14 02:47:31;;;;;;;4.95;2.17;;;20.00;47.20;;;;;;4936410;29;20031;-55
2021/11/14 02:49:56;;;;;;;4.45;2.13;;;20.00;47.20;;;;;;4936754;29;20032;-55
2021/11/14 02:52:22;;;;;;;4.18;2.00;;;20.00;47.20;;;;;;4936716;29;20031;-52
2021/11/14 02:54:47;;;;;;;4.15;1.85;;;20.00;47.20;;;;;;4936421;29;20106;-52
2021/11/14 02:57:13;;;;;;;4.20;2.00;;;20.00;47.20;;;;;;4936429;29;20024;-54
2021/11/14 02:59:39;;;;;;;4.20;2.15;;;20.00;47.20;;;;;;4936223;29;20024;-56
2021/11/14 03:02:04;;;;;;;4.82;2.05;;;20.00;47.20;;;;;;4936028;29;20056;-53
2021/11/14 03:04:31;;;;;;;4.43;2.40;;;20.00;47.20;;;;;;4936428;29;20099;-56
2021/11/14 03:06:58;;;;;;;4.60;2.00;;;20.00;47.20;;;;;;4936419;29;20050;-55
2021/11/14 03:09:24;;;;;;;4.97;2.60;;;20.00;47.20;;;;;;4936454;29;20090;-55
2021/11/14 03:11:52;;;;;;;3.53;1.75;;;20.00;47.20;;;;;;4936051;29;20023;-55
2021/11/14 03:14:17;;;;;;;4.13;2.33;;;20.00;47.20;;;;;;4935950;29;20062;-55
2021/11/14 03:16:44;;;;;;;4.00;2.03;;;20.00;47.20;;;;;;4935727;29;20476;-56
2021/11/14 03:19:11;;;;;;;5.15;2.47;;;20.00;47.20;;;;;;4936114;29;20031;-54
2021/11/14 03:21:36;;;;;;;3.67;1.98;;;20.00;47.20;;;;;;4935971;29;20115;-56
2021/11/14 03:24:03;;;;;;;4.38;2.17;;;20.00;47.20;;;;;;4936263;29;20175;-52
2021/11/14 03:26:28;;;;;;;4.20;2.20;;;20.00;47.20;;;;;;4935966;29;20031;-56
2021/11/14 03:28:54;;;;;;;4.95;2.25;;;20.00;47.20;;;;;;4935862;29;20051;-55
2021/11/14 03:31:20;;;;;;;4.05;1.98;;;20.00;47.20;;;;;;4936101;29;20102;-57
2021/11/14 03:33:46;;;;;;;3.70;2.03;;;20.00;47.10;;;;;;4935902;29;20066;-53
2021/11/14 03:36:16;;;;;;;4.72;2.25;;;20.00;47.10;;;;;;4935911;29;20032;-55
2021/11/14 03:38:47;;;;;;;6.30;2.17;;;20.00;47.10;;;;;;4935810;29;20031;-56
2021/11/14 03:41:19;;;;;;;4.63;2.20;;;20.00;47.10;;;;;;4935709;29;20424;-53
2021/11/14 03:43:45;;;;;;;3.95;1.80;;;20.00;47.20;;;;;;4935941;29;20047;-55
2021/11/14 03:46:11;;;;;;;3.53;1.83;;;20.00;47.10;;;;;;4935708;29;20024;-56
2021/11/14 03:48:40;;;;;;;5.78;2.28;;;20.00;47.10;;;;;;4935597;29;20038;-54
2021/11/14 03:51:06;;;;;;;5.65;2.50;;;20.00;47.10;;;;;;4935813;29;20084;-53
2021/11/14 03:53:32;;;;;;;4.32;1.95;;;20.00;47.10;;;;;;4935923;29;20028;-56
2021/11/14 03:55:58;;;;;;;5.28;2.08;;;20.00;47.10;;;;;;4935791;29;20032;-52
2021/11/14 03:58:24;;;;;;;3.75;1.88;;;20.00;47.10;;;;;;4935847;29;20111;-54
2021/11/14 04:00:54;;;;;;;3.38;1.75;;;20.00;47.10;;;;;;4935907;29;20055;-52
2021/11/14 04:03:21;;;;;;;4.70;2.10;;;20.00;47.10;;;;;;4935458;29;20060;-55
2021/11/14 04:05:47;;;;;;;3.45;2.00;;;19.90;47.00;;;;;;4935579;29;20511;-55
2021/11/14 04:08:19;;;;;;;4.68;2.10;;;20.00;47.00;;;;;;4935537;29;20032;-55
2021/11/14 04:10:47;;;;;;;3.58;2.00;;;20.00;47.10;;;;;;4935919;29;20388;-56
2021/11/14 04:13:13;;;;;;;5.40;2.33;;;20.00;47.10;;;;;;4935734;29;20105;-50
2021/11/14 04:15:39;;;;;;;4.38;1.88;;;19.90;47.00;;;;;;4935522;29;20024;-55
2021/11/14 04:18:05;;;;;;;3.78;1.83;;;19.90;47.00;;;;;;4935510;29;20153;-54
2021/11/14 04:20:33;;;;;;;2.95;1.90;;;20.00;47.00;;;;;;4935470;29;20028;-55
2021/11/14 04:22:59;;;;;;;3.70;2.00;;;20.00;47.00;;;;;;4935270;29;20506;-53
2021/11/14 04:25:26;;;;;;;5.35;2.47;;;19.90;47.10;;;;;;4935582;29;20026;-52
2021/11/14 04:27:53;;;;;;;3.97;1.83;;;20.00;47.00;;;;;;4935648;29;20027;-55
2021/11/14 04:30:19;;;;;;;4.78;2.22;;;20.00;47.00;;;;;;4938052;29;20051;-51
2021/11/14 04:32:45;;;;;;;5.55;2.60;;;19.90;47.00;;;;;;4939060;29;20420;-56
2021/11/14 04:35:11;;;;;;;4.38;2.25;;;19.90;47.00;;;;;;4938969;29;20032;-54
2021/11/14 04:37:37;;;;;;;4.25;2.40;;;19.90;47.00;;;;;;4938839;29;20496;-56
2021/11/14 04:40:06;;;;;;;4.15;2.03;;;19.90;46.90;;;;;;4938887;29;20502;-53
2021/11/14 04:42:32;;;;;;;5.22;2.40;;;19.90;46.90;;;;;;4938675;29;20035;-53
2021/11/14 04:44:57;;;;;;;4.32;2.20;;;19.90;46.90;;;;;;4939079;29;20079;-53
2021/11/14 04:47:23;;;;;;;4.43;2.28;;;19.90;47.00;;;;;;4938809;29;20063;-51
2021/11/14 04:49:49;;;;;;;3.92;2.10;;;19.90;46.90;;;;;;4938735;29;20027;-55
2021/11/14 04:52:15;;;;;;;4.97;2.75;;;19.90;46.90;;;;;;4938878;29;20028;-54
2021/11/14 04:54:41;;;;;;;4.05;2.05;;;19.90;46.90;;;;;;4938889;29;20510;-52
2021/11/14 04:57:06;;;;;;;5.63;2.40;;;19.90;46.90;;;;;;4938858;29;20032;-51
2021/11/14 04:59:32;;;;;;;4.03;2.13;;;19.90;46.90;;;;;;4938577;29;20046;-51
2021/11/14 05:01:58;;;;;;;4.28;1.90;;;19.90;46.80;;;;;;4938274;29;20038;-54
2021/11/14 05:04:23;;;;;;;5.15;2.50;;;19.90;46.90;;;;;;4938492;29;20032;-53
2021/11/14 05:06:49;;;;;;;5.88;2.38;;;19.90;46.80;;;;;;4938631;29;20036;-55
2021/11/14 05:09:15;;;;;;;4.45;2.22;;;19.90;46.80;;;;;;4938364;29;20384;-53
2021/11/14 05:11:40;;;;;;;5.00;2.60;;;19.90;46.80;;;;;;4938599;29;20110;-52
2021/11/14 05:14:06;;;;;;;5.18;2.20;;;19.90;46.90;;;;;;4938549;29;20486;-56
2021/11/14 05:16:31;;;;;;;3.78;1.83;;;19.90;46.80;;;;;;4938338;29;20015;-55
2021/11/14 05:18:57;;;;;;;3.97;2.03;;;19.90;46.80;;;;;;4938279;29;20139;-52
2021/11/14 05:21:23;;;;;;;3.08;1.80;;;19.90;46.80;;;;;;4938040;29;20030;-54
2021/11/14 05:23:49;;;;;;;5.00;2.30;;;19.90;46.70;;;;;;4938274;29;20062;-56
2021/11/14 05:26:15;;;;;;;5.32;2.33;;;19.90;46.70;;;;;;4938047;29;20028;-54
2021/11/14 05:28:41;;;;;;;4.85;2.35;;;19.90;46.70;;;;;;4938125;29;20083;-54
2021/11/14 05:31:08;;;;;;;5.25;2.55;;;19.90;46.60;;;;;;4937997;29;20484;-53
2021/11/14 05:33:34;;;;;;;4.97;2.50;;;20.00;46.60;;;;;;4937994;29;20043;-52
2021/11/14 05:36:00;;;;;;;5.15;2.33;;;20.00;46.50;;;;;;4937891;29;20027;-56
2021/11/14 05:38:26;;;;;;;5.22;2.30;;;20.00;46.60;;;;;;4938442;29;20051;-54
2021/11/14 05:40:51;;;;;;;3.90;2.15;;;20.00;46.60;;;;;;4937394;29;20062;-56
2021/11/14 05:43:17;;;;;;;4.13;2.28;;;20.00;46.50;;;;;;4937774;29;20079;-54
2021/11/14 05:45:43;;;;;;;5.38;1.95;;;20.00;46.60;;;;;;4937840;29;20106;-51
2021/11/14 05:48:10;;;;;;;3.92;2.03;;;20.00;46.40;;;;;;4937641;29;20028;-52
2021/11/14 05:50:37;;;;;;;4.05;1.95;;;20.00;46.50;;;;;;4937645;29;20070;-54
2021/11/14 05:53:03;;;;;;;3.65;1.75;;;20.10;46.40;;;;;;4937784;29;20028;-51
2021/11/14 05:55:29;;;;;;;4.18;2.10;;;20.10;46.40;;;;;;4937694;29;20031;-56
2021/11/14 05:57:58;;;;;;;3.97;2.10;;;20.10;46.40;;;;;;4937612;29;20376;-56
2021/11/14 06:03:02;;;;;;;4.65;2.20;;;20.10;46.40;;;;;;4937328;29;20075;-56
2021/11/14 06:05:29;;;;;;;4.50;2.10;;;20.10;46.30;;;;;;4937651;29;20052;-55
2021/11/14 06:07:55;;;;;;;3.95;2.00;;;20.10;46.30;;;;;;4937297;29;20459;-56
2021/11/14 06:10:21;;;;;;;4.40;2.30;;;20.10;46.30;;;;;;4937231;29;20064;-56
2021/11/14 06:12:47;;;;;;;4.82;2.47;;;20.10;46.30;;;;;;4937213;29;20066;-53
2021/11/14 06:15:15;;;;;;;4.50;2.22;;;20.10;46.30;;;;;;4937177;29;20159;-54
2021/11/14 06:17:41;;;;;;;3.47;1.98;;;20.10;46.30;;;;;;4937443;29;20032;-53
2021/11/14 06:20:08;;;;;;;6.00;2.65;;;20.10;46.30;;;;;;4937372;29;20384;-56
2021/11/14 06:22:33;;;;;;;4.53;2.10;;;20.00;46.30;;;;;;4936950;29;20111;-55
2021/11/14 06:24:59;;;;;;;4.30;2.33;;;20.00;46.20;;;;;;4936925;29;20472;-55
2021/11/14 06:27:25;;;;;;;5.13;2.45;;;20.00;46.30;;;;;;4937247;29;20035;-53
2021/11/14 06:29:50;;;;;;;4.95;2.38;;;20.00;46.30;;;;;;4936889;29;20408;-53
2021/11/14 06:32:16;;;;;;;4.50;2.15;;;20.00;46.20;;;;;;4937056;29;20035;-52
2021/11/14 06:34:42;;;;;;;4.60;2.42;;;20.00;46.30;;;;;;4936991;29;20034;-56
2021/11/14 06:37:07;;;;;;;4.63;2.17;;;20.00;46.20;;;;;;4936738;29;20032;-55
2021/11/14 06:39:35;;;;;;;4.63;2.42;;;20.00;46.30;;;;;;4936759;29;20121;-55
2021/11/14 06:42:00;;;;;;;3.72;2.10;;;20.00;46.30;;;;;;4936559;29;20491;-54
2021/11/14 06:44:26;;;;;;;5.10;2.38;;;20.00;46.20;;;;;;4936845;29;20031;-53
2021/11/14 06:46:52;;;;;;;4.85;2.53;;;20.00;46.20;;;;;;4936839;29;20031;-54
2021/11/14 06:49:18;;;;;;;4.05;2.22;;;20.00;46.20;;;;;;4936791;29;20042;-54
2021/11/14 06:51:43;;;;;;;4.90;2.05;;;20.00;46.20;;;;;;4936079;29;20055;-54
2021/11/14 06:54:09;;;;;;;5.25;2.78;;;20.00;46.20;;;;;;4936773;29;20063;-53
2021/11/14 06:56:35;;;;;;;6.13;2.55;;;20.00;46.10;;;;;;4936489;29;20051;-51
2021/11/14 06:59:00;;;;;;;3.95;2.00;;;20.00;46.10;;;;;;4936696;29;20121;-56
2021/11/14 07:01:25;;;;;;;4.03;1.92;;;20.00;46.10;;;;;;4936309;29;20032;-53
2021/11/14 07:03:51;;;;;;;5.00;2.13;;;20.00;46.10;;;;;;4936178;29;20518;-52
2021/11/14 07:06:16;;;;;;;5.43;3.00;;;20.00;46.10;;;;;;4936578;29;20028;-54
2021/11/14 07:08:42;;;;;;;4.72;2.55;;;20.00;46.00;;;;;;4936459;29;20028;-55
2021/11/14 07:11:08;;;;;;;4.72;2.50;;;20.00;46.10;;;;;;4936253;29;20042;-56
2021/11/14 07:13:33;;;;;;;3.55;1.90;;;20.00;46.10;;;;;;4936091;29;20023;-56
2021/11/14 07:15:59;;;;;;;5.75;2.60;;;20.00;46.10;;;;;;4936066;29;20071;-55
2021/11/14 07:18:25;;;;;;;5.20;2.45;;;20.00;46.10;;;;;;4936038;29;20028;-53
2021/11/14 07:20:50;;;;;;;4.88;2.40;;;20.00;46.00;;;;;;4936182;29;20528;-56
2021/11/14 07:23:16;;;;;;;5.20;2.63;;;20.00;46.00;;;;;;4936038;29;20456;-55
2021/11/14 07:25:44;;;;;;;5.32;2.60;;;20.00;46.00;;;;;;4935917;29;20023;-51
2021/11/14 07:28:10;;;;;;;4.22;2.00;;;20.00;46.00;;;;;;4935723;29;20476;-53
2021/11/14 07:30:37;;;;;;;4.90;2.55;;;20.00;46.10;;;;;;4935776;29;20028;-56
2021/11/14 07:33:03;;;;;;;5.43;2.42;;;20.10;46.00;;;;;;4935617;29;20030;-53
2021/11/14 07:35:30;;;;;;;4.43;2.30;;;20.00;46.10;;;;;;4935629;29;20024;-56
2021/11/14 07:37:56;;;;;;;5.18;2.55;;;20.00;45.90;;;;;;4935713;29;20027;-55
2021/11/14 07:40:23;;;;;;;5.60;2.40;;;20.10;46.00;;;;;;4935769;29;20421;-56
2021/11/14 07:42:50;;;;;;;4.72;2.53;;;20.10;46.00;;;;;;4935591;29;20510;-52
2021/11/14 07:45:20;;;;;;;5.35;2.58;;;20.10;45.90;;;;;;4935903;29;20042;-52
2021/11/14 07:47:46;;;;;;;11.95;7.13;;;20.10;45.90;;;;;;4935659;29;20373;-53
2021/11/14 07:50:13;;;;;;;12.55;7.82;;;19.30;45.80;;;;;;4935924;29;20380;-49
2021/11/14 07:52:39;;;;;;;18.95;11.13;;;18.50;48.00;;;;;;4935687;29;20060;-53
2021/11/14 07:55:07;;;;;;;18.80;12.35;;;17.90;48.70;;;;;;4935690;29;20062;-52
2021/11/14 07:57:33;;;;;;;20.88;12.02;;;17.30;50.00;;;;;;4935549;29;20104;-50
2021/11/14 07:59:59;;;;;;;22.35;13.77;;;16.80;50.70;;;;;;4935372;29;20067;-53
2021/11/14 08:02:24;;;;;;;23.23;14.70;;;16.60;51.30;;;;;;4935372;29;20044;-56
2021/11/14 08:04:50;;;;;;;24.35;14.38;;;16.30;52.10;;;;;;4939034;29;20036;-53
2021/11/14 08:07:15;;;;;;;26.30;15.80;;;16.60;51.10;;;;;;4939444;29;20038;-49
2021/11/14 08:09:41;;;;;;;27.83;15.55;;;16.50;51.30;;;;;;4939335;29;20039;-50
2021/11/14 08:12:07;;;;;;;31.20;17.48;;;16.70;50.70;;;;;;4939223;29;20075;-51
2021/11/14 08:14:33;;;;;;;29.45;18.02;;;16.50;51.10;;;;;;4939510;29;20032;-49
2021/11/14 08:16:58;;;;;;;33.17;17.95;;;16.10;51.80;;;;;;4939298;29;20109;-55
2021/11/14 08:19:24;;;;;;;28.65;17.20;;;16.10;52.00;;;;;;4939323;29;20028;-59
2021/11/14 08:21:49;;;;;;;30.10;18.48;;;16.30;51.60;;;;;;4939136;29;20058;-52
2021/11/14 08:24:15;;;;;;;32.80;18.52;;;16.30;51.40;;;;;;4939381;29;20032;-56
2021/11/14 08:26:40;;;;;;;32.45;18.92;;;16.20;51.60;;;;;;4939014;29;20044;-55
2021/11/14 08:29:06;;;;;;;31.90;19.33;;;16.10;51.90;;;;;;4939216;29;20035;-57
2021/11/14 08:31:31;;;;;;;32.00;20.75;;;15.90;52.50;;;;;;4939301;29;20520;-58
2021/11/14 08:33:59;;;;;;;32.00;19.52;;;15.90;52.30;;;;;;4938905;29;20028;-58
2021/11/14 08:36:27;;;;;;;31.98;19.73;;;15.90;52.60;;;;;;4938876;29;20095;-56
2021/11/14 08:38:52;;;;;;;33.38;20.00;;;16.00;52.20;;;;;;4938819;29;20495;-56
2021/11/14 08:41:18;;;;;;;33.17;21.08;;;16.00;52.20;;;;;;4938741;29;20034;-54
2021/11/14 08:43:44;;;;;;;34.80;20.45;;;16.10;51.90;;;;;;4938903;29;20387;-59
2021/11/14 08:46:10;;;;;;;30.33;20.33;;;16.10;51.90;;;;;;4938904;29;20020;-60
2021/11/14 08:48:36;;;;;;;31.58;18.92;;;16.00;52.20;;;;;;4938737;29;20108;-58
2021/11/14 08:51:02;;;;;;;32.22;19.27;;;15.90;52.60;;;;;;4939097;29;20027;-58
2021/11/14 08:53:28;;;;;;;27.30;18.80;;;15.80;52.60;;;;;;4938570;29;20487;-58
2021/11/14 08:55:54;;;;;;;27.13;17.75;;;15.80;53.00;;;;;;4938424;29;20174;-60
2021/11/14 08:58:20;;;;;;;28.27;18.00;;;16.00;52.50;;;;;;4938552;29;20083;-59
2021/11/14 09:00:46;;;;;;;26.33;17.05;;;16.00;52.30;;;;;;4938241;29;20027;-59
2021/11/14 09:03:11;;;;;;;25.85;16.80;;;16.00;52.30;;;;;;4937897;29;20063;-59
2021/11/14 09:05:37;;;;;;;22.45;15.43;;;16.00;52.50;;;;;;4938201;29;20038;-59
2021/11/14 09:08:05;;;;;;;21.67;13.95;;;16.00;52.50;;;;;;4938427;29;20083;-59
2021/11/14 09:10:32;;;;;;;24.95;15.70;;;15.80;52.80;;;;;;4938069;29;20032;-59
2021/11/14 09:12:59;;;;;;;19.80;14.00;;;16.00;52.50;;;;;;4937987;29;20391;-59
2021/11/14 09:15:27;;;;;;;21.00;13.93;;;16.00;52.40;;;;;;4937155;29;20028;-59
2021/11/14 09:17:53;;;;;;;21.70;13.45;;;16.10;52.20;;;;;;4938055;29;20062;-57
2021/11/14 09:20:21;;;;;;;19.98;12.27;;;16.10;52.30;;;;;;4938193;29;20040;-59
2021/11/14 09:22:47;;;;;;;19.58;11.48;;;16.30;51.50;;;;;;4938057;29;20115;-56
2021/11/14 09:25:14;;;;;;;19.17;11.52;;;16.30;51.50;;;;;;4937839;29;20523;-59
2021/11/14 09:27:40;;;;;;;16.92;12.00;;;16.30;51.70;;;;;;4938003;29;20034;-59
2021/11/14 09:30:07;;;;;;;17.73;10.60;;;16.20;52.10;;;;;;4937560;29;20079;-59
2021/11/14 09:32:32;;;;;;;17.10;10.93;;;16.20;52.50;;;;;;4937803;29;20040;-60
2021/11/14 09:34:58;;;;;;;15.40;10.35;;;16.50;51.80;;;;;;4937931;29;20118;-58
2021/11/14 09:37:25;;;;;;;17.45;10.52;;;16.70;51.30;;;;;;4937506;29;20448;-57
2021/11/14 09:39:51;;;;;;;20.98;11.27;;;16.60;51.40;;;;;;4937742;29;20348;-61
2021/11/14 09:42:17;;;;;;;18.27;11.63;;;16.60;51.40;;;;;;4937202;29;20027;-59
2021/11/14 09:44:43;;;;;;;18.05;12.23;;;16.60;51.50;;;;;;4937295;29;20043;-60
2021/11/14 09:47:09;;;;;;;18.05;10.95;;;16.50;51.90;;;;;;4937703;29;20028;-58
2021/11/14 09:49:35;;;;;;;17.17;10.80;;;16.60;51.70;;;;;;4937401;29;20491;-57
2021/11/14 09:52:03;;;;;;;20.15;12.70;;;16.50;51.80;;;;;;4937291;29;20034;-59
2021/11/14 09:54:31;;;;;;;18.70;11.98;;;16.40;51.90;;;;;;4937625;29;20036;-62
2021/11/14 09:56:58;;;;;;;17.90;10.98;;;16.20;52.50;;;;;;4937423;29;20071;-59
2021/11/14 09:59:24;;;;;;;18.20;11.40;;;16.50;52.30;;;;;;4937250;29;20114;-58
2021/11/14 10:01:50;;;;;;;23.50;11.77;;;16.30;52.60;;;;;;4936804;29;20028;-55
2021/11/14 10:04:15;;;;;;;18.55;11.90;;;16.50;52.10;;;;;;4937349;29;20043;-52
2021/11/14 10:06:41;;;;;;;16.10;11.40;;;16.40;52.70;;;;;;4936918;29;20087;-51
2021/11/14 10:09:08;;;;;;;14.90;10.60;;;16.30;52.50;;;;;;4937138;29;20027;-57
2021/11/14 10:11:37;;;;;;;19.05;11.82;;;16.40;52.80;;;;;;4937042;29;20028;-59
2021/11/14 10:14:03;;;;;;;16.75;10.80;;;16.20;52.80;;;;;;4936897;29;20055;-60
2021/11/14 10:16:29;;;;;;;18.20;12.40;;;16.20;53.00;;;;;;4936945;29;20035;-59
2021/11/14 10:19:08;;;;;;;18.23;11.98;;;16.10;53.40;;;;;;4937036;29;20387;-55
2021/11/14 10:21:35;;;;;;;19.13;11.95;;;16.20;53.20;;;;;;4937050;29;20111;-57
2021/11/14 10:24:05;;;;;;;19.23;13.02;;;16.00;53.50;;;;;;4936895;29;20122;-57
2021/11/14 10:26:31;;;;;;;18.92;12.43;;;16.10;53.40;;;;;;4936779;29;20107;-55
2021/11/14 10:29:07;;;;;;;18.17;12.88;;;16.00;53.70;;;;;;4936767;29;20377;-57
2021/11/14 10:31:34;;;;;;;19.60;13.30;;;16.10;53.30;;;;;;4936679;29;20148;-58
2021/11/14 10:34:01;;;;;;;18.55;12.82;;;16.00;53.90;;;;;;4936321;29;20036;-60
2021/11/14 10:36:28;;;;;;;17.13;12.23;;;16.00;53.90;;;;;;4936452;29;20032;-58
2021/11/14 10:39:19;;;;;;;19.88;13.10;;;16.30;53.00;;;;;;4936591;29;20024;-60
2021/11/14 10:41:47;;;;;;;19.73;12.73;;;16.40;52.90;;;;;;4933657;29;20475;-60
2021/11/14 10:44:15;;;;;;;17.70;11.63;;;16.30;53.10;;;;;;4936447;29;20032;-59
2021/11/14 10:46:41;;;;;;;17.05;11.50;;;16.20;53.60;;;;;;4936066;29;20024;-51
2021/11/14 10:49:09;;;;;;;16.77;11.68;;;16.00;53.90;;;;;;4936175;29;20038;-57
2021/11/14 10:51:37;;;;;;;17.23;10.77;;;16.00;54.20;;;;;;4936314;29;20039;-57
2021/11/14 10:54:02;;;;;;;15.45;10.20;;;16.10;54.10;;;;;;4936072;29;20424;-58
2021/11/14 10:56:28;;;;;;;16.50;10.82;;;16.30;53.20;;;;;;4935980;29;20027;-60
2021/11/14 10:58:54;;;;;;;17.55;11.75;;;16.30;53.20;;;;;;4935912;29;20030;-60
2021/11/14 11:01:21;;;;;;;16.23;11.52;;;16.30;53.30;;;;;;4935967;29;20027;-61
2021/11/14 11:03:50;;;;;;;18.92;12.13;;;16.20;53.60;;;;;;4935727;29;20507;-59
2021/11/14 11:06:25;;;;;;;20.25;12.38;;;16.40;53.10;;;;;;4935931;29;20317;-62
2021/11/14 11:08:51;;;;;;;18.23;11.27;;;16.10;54.20;;;;;;4935685;29;20047;-57
2021/11/14 11:11:21;;;;;;;17.42;11.13;;;16.10;54.20;;;;;;4934445;29;20135;-61
2021/11/14 11:13:48;;;;;;;17.75;12.18;;;16.20;54.40;;;;;;4935880;29;20027;-62
2021/11/14 11:16:23;;;;;;;15.68;10.25;;;16.20;54.20;;;;;;4936015;29;20119;-62
2021/11/14 11:19:06;;;;;;;16.20;10.30;;;16.50;53.70;;;;;;4935976;29;20369;-61
2021/11/14 11:21:37;;;;;;;16.70;10.82;;;16.50;53.50;;;;;;4935665;29;20048;-62
2021/11/14 11:24:21;;;;;;;14.82;10.10;;;16.60;53.50;;;;;;4936151;29;20039;-62
2021/11/14 11:27:05;;;;;;;16.98;11.02;;;16.40;53.70;;;;;;4935784;29;20484;-62
2021/11/14 11:29:37;;;;;;;15.50;10.65;;;16.40;53.80;;;;;;4935914;29;20228;-61
2021/11/14 11:32:04;;;;;;;17.33;10.93;;;16.40;54.00;;;;;;4935524;29;20034;-61
2021/11/14 11:34:30;;;;;;;15.45;10.80;;;16.40;54.20;;;;;;4935123;29;20035;-61
2021/11/14 11:36:56;;;;;;;18.95;10.55;;;16.30;54.10;;;;;;4935313;29;20483;-60
2021/11/14 11:39:23;;;;;;;17.55;10.65;;;16.30;54.80;;;;;;4935223;29;20403;-65
2021/11/14 11:41:50;;;;;;;17.58;11.15;;;16.60;53.70;;;;;;4935341;29;20040;-63
2021/11/14 11:44:17;;;;;;;16.13;10.20;;;16.50;53.90;;;;;;4935171;29;20060;-62
2021/11/14 11:46:46;;;;;;;15.35;10.77;;;16.60;53.80;;;;;;4934630;29;20071;-63
2021/11/14 11:49:20;;;;;;;18.38;10.95;;;16.80;53.30;;;;;;4934937;29;20051;-62
2021/11/14 11:51:52;;;;;;;14.40;9.00;;;16.70;53.50;;;;;;4935086;29;20027;-59
2021/11/14 11:54:20;;;;;;;15.10;10.48;;;17.00;52.60;;;;;;4934899;29;20059;-58
2021/11/14 11:56:58;;;;;;;15.50;10.80;;;16.90;52.70;;;;;;4935063;29;20028;-58
2021/11/14 11:59:31;;;;;;;13.50;9.77;;;16.50;53.50;;;;;;4935311;29;20027;-57
2021/11/14 12:02:31;;;;;;;14.48;10.15;;;16.60;53.60;;;;;;4934634;29;20024;-60
2021/11/14 12:05:04;;;;;;;15.32;9.40;;;16.40;54.00;;;;;;4902672;29;20044;-60
2021/11/14 12:07:32;;;;;;;13.45;9.38;;;16.90;53.00;;;;;;4935739;29;20404;-59
2021/11/14 12:10:01;;;;;;;13.52;8.90;;;16.70;53.40;;;;;;4934900;29;20507;-60
2021/11/14 12:12:52;;;;;;;14.07;9.45;;;16.90;52.90;;;;;;4935365;29;20039;-60
2021/11/14 12:15:27;;;;;;;12.60;8.98;;;16.90;52.50;;;;;;4934883;29;20162;-59
2021/11/14 12:18:07;;;;;;;18.55;8.23;;;17.20;51.80;;;;;;4933172;29;20028;-59
2021/11/14 12:20:35;;;;;;;16.48;8.60;;;17.20;51.70;;;;;;4935133;29;20027;-60
2021/11/14 12:23:17;;;;;;;13.05;8.63;;;17.00;52.30;;;;;;4934910;29;20088;-58
2021/11/14 12:25:45;;;;;;;13.98;9.38;;;16.90;52.60;;;;;;4935201;29;20039;-58
2021/11/14 12:28:14;;;;;;;12.88;8.95;;;17.00;51.90;;;;;;4934524;29;20060;-58
2021/11/14 12:30:56;;;;;;;13.73;8.88;;;17.00;52.30;;;;;;4935024;29;20066;-60
2021/11/14 12:33:27;;;;;;;15.20;8.93;;;17.30;51.70;;;;;;4935160;29;20051;-59
2021/11/14 12:35:59;;;;;;;15.45;10.52;;;17.20;52.10;;;;;;4935241;29;20028;-57
2021/11/14 12:38:27;;;;;;;15.32;10.50;;;17.30;51.40;;;;;;4934749;29;20031;-60
2021/11/14 12:40:57;;;;;;;14.10;9.88;;;17.50;51.50;;;;;;4935000;29;20039;-57
2021/11/14 12:43:26;;;;;;;17.50;9.75;;;17.20;51.90;;;;;;4935385;29;20520;-58